^^
Station Historical Data
 
Daily Summary for March 06, 2015 Units:  English    Metric   Both
« Previous Day
Next Day »
Daily Weekly Monthly Yearly Custom
  Current: High: Low: Average:
Temperature: 14.2 °F 16.4 °F 2.9 °F 10.3 °F
Dew Point: 4.6 °F 5.6 °F -3.0 °F 1.9 °F
Humidity: 65% 79% 62% 69%
Wind Speed: 0.0mph 9.0mph 1.0mph 2.9mph
Wind Gust: 0.0mph 9.0mph - -
WindCalm - - NW
Pressure: 30.57 in 30.58 in 30.41 in -
Precipitation: 0.00 in      
Historical Graphs
 
 
Tabular Data for March 06, 2015
Time Temperature Dew Point Pressure Wind Wind Speed Wind Gust Humidity Rainfall Rate (Hourly)
00:04 16.4 °F 5.6 °F 30.42 in NNW 3.5 mph 3.5 mph 62% 0.00 in
00:09 16.2 °F 5.5 °F 30.42 in NW 3.5 mph 3.5 mph 62% 0.00 in
00:14 16.0 °F 5.3 °F 30.41 in NW 2.0 mph 2.0 mph 62% 0.00 in
00:19 15.7 °F 5.3 °F 30.41 in NW 5.8 mph 5.8 mph 63% 0.00 in
00:24 15.5 °F 5.1 °F 30.41 in NW 5.0 mph 5.0 mph 63% 0.00 in
00:29 15.4 °F 5.0 °F 30.42 in NNW 6.9 mph 6.9 mph 63% 0.00 in
00:34 15.4 °F 5.0 °F 30.41 in NW 6.9 mph 6.9 mph 63% 0.00 in
00:39 15.5 °F 5.1 °F 30.42 in NW 6.9 mph 6.9 mph 63% 0.00 in
00:44 15.5 °F 4.8 °F 30.42 in NNW 9.0 mph 9.0 mph 62% 0.00 in
00:49 15.7 °F 5.0 °F 30.42 in NW 5.0 mph 5.0 mph 62% 0.00 in
00:54 15.5 °F 4.8 °F 30.42 in NW 6.9 mph 6.9 mph 62% 0.00 in
00:59 15.4 °F 4.7 °F 30.42 in NNW 7.0 mph 7.0 mph 62% 0.00 in
01:04 15.5 °F 4.8 °F 30.42 in NW 6.0 mph 6.0 mph 62% 0.00 in
01:09 15.4 °F 4.7 °F 30.42 in NW 4.6 mph 4.6 mph 62% 0.00 in
01:14 15.2 °F 4.5 °F 30.43 in WNW 3.5 mph 3.5 mph 62% 0.00 in
01:19 14.8 °F 4.5 °F 30.43 in NW 5.0 mph 5.0 mph 63% 0.00 in
01:24 14.5 °F 4.2 °F 30.44 in NW 2.3 mph 2.3 mph 63% 0.00 in
01:29 14.3 °F 4.0 °F 30.44 in Calm   0.4 mph 63% 0.00 in
01:34 14.1 °F 3.8 °F 30.44 in NNW 2.3 mph 2.3 mph 63% 0.00 in
01:39 14.0 °F 4.1 °F 30.45 in WNW 2.3 mph 2.3 mph 64% 0.00 in
01:44 13.8 °F 3.9 °F 30.45 in WNW 1.2 mph 1.2 mph 64% 0.00 in
01:49 13.6 °F 3.7 °F 30.45 in WNW 1.2 mph   64% 0.00 in
01:54 13.4 °F 3.5 °F 30.45 in Calm   0.2 mph 64% 0.00 in
01:59 13.1 °F 3.2 °F 30.45 in Calm     64% 0.00 in
02:04 12.7 °F 3.1 °F 30.45 in Calm     65% 0.00 in
02:09 12.4 °F 2.9 °F 30.46 in Calm     65% 0.00 in
02:14 11.9 °F 2.7 °F 30.46 in WNW 1.2 mph 1.2 mph 66% 0.00 in
02:19 11.6 °F 2.8 °F 30.45 in WNW 2.3 mph 2.3 mph 67% 0.00 in
02:24 11.4 °F 2.6 °F 30.46 in WNW 1.2 mph 1.2 mph 67% 0.00 in
02:29 11.5 °F 2.7 °F 30.46 in NW 3.5 mph 3.5 mph 67% 0.00 in
02:34 11.7 °F 2.8 °F 30.46 in NW 4.6 mph 4.6 mph 67% 0.00 in
02:39 11.8 °F 2.9 °F 30.46 in NW 2.3 mph 2.3 mph 67% 0.00 in
02:44 11.8 °F 2.9 °F 30.46 in Calm     67% 0.00 in
02:49 11.6 °F 2.8 °F 30.45 in NW 2.3 mph 2.3 mph 67% 0.00 in
02:54 11.6 °F 2.8 °F 30.46 in Calm     67% 0.00 in
02:59 11.6 °F 2.4 °F 30.46 in NW 2.3 mph 2.3 mph 66% 0.00 in
03:04 11.5 °F 2.7 °F 30.45 in Calm     67% 0.00 in
03:09 11.4 °F 2.6 °F 30.45 in Calm     67% 0.00 in
03:14 11.3 °F 2.5 °F 30.45 in Calm   0.4 mph 67% 0.00 in
03:19 11.3 °F 2.5 °F 30.45 in NW 1.2 mph 1.2 mph 67% 0.00 in
03:24 11.3 °F 2.5 °F 30.45 in Calm     67% 0.00 in
03:29 11.2 °F 2.4 °F 30.46 in NW 1.2 mph   67% 0.00 in
03:34 11.1 °F 2.3 °F 30.46 in NW 3.5 mph 3.5 mph 67% 0.00 in
03:39 11.0 °F 2.2 °F 30.46 in NW 2.3 mph 2.3 mph 67% 0.00 in
03:44 10.9 °F 2.1 °F 30.46 in NW 2.3 mph 2.3 mph 67% 0.00 in
03:49 10.8 °F 2.0 °F 30.46 in NW 3.5 mph 3.5 mph 67% 0.00 in
03:54 10.7 °F 2.2 °F 30.46 in Calm     68% 0.00 in
03:59 10.4 °F 1.6 °F 30.47 in Calm     67% 0.00 in
04:04 10.2 °F 1.7 °F 30.47 in Calm     68% 0.00 in
04:09 9.9 °F 1.4 °F 30.47 in Calm     68% 0.00 in
04:14 9.5 °F 1.1 °F 30.47 in Calm     68% 0.00 in
04:19 9.1 °F 1.0 °F 30.47 in Calm     69% 0.00 in
04:24 8.7 °F 0.9 °F 30.48 in Calm     70% 0.00 in
04:29 8.6 °F 0.8 °F 30.48 in NW 4.0 mph 4.0 mph 70% 0.00 in
04:34 8.6 °F 0.8 °F 30.48 in NW 1.2 mph 1.2 mph 70% 0.00 in
04:39 8.7 °F 0.9 °F 30.48 in NW 1.2 mph 1.2 mph 70% 0.00 in
04:44 8.9 °F 0.8 °F 30.49 in Calm     69% 0.00 in
04:49 8.9 °F 0.8 °F 30.49 in NW 3.5 mph 3.5 mph 69% 0.00 in
04:54 8.9 °F 0.8 °F 30.50 in Calm     69% 0.00 in
04:59 8.7 °F 0.6 °F 30.50 in Calm     69% 0.00 in
05:04 8.3 °F 0.2 °F 30.51 in Calm     69% 0.00 in
05:09 7.8 °F -0.3 °F 30.51 in NW 1.2 mph   69% 0.00 in
05:14 7.5 °F -0.2 °F 30.51 in NW 1.2 mph 1.2 mph 70% 0.00 in
05:19 7.5 °F 0.1 °F 30.51 in NW 2.3 mph 2.3 mph 71% 0.00 in
05:24 7.9 °F 0.4 °F 30.52 in NW 3.5 mph 3.5 mph 71% 0.00 in
05:29 8.2 °F 0.4 °F 30.52 in NW 1.2 mph 1.2 mph 70% 0.00 in
05:34 8.2 °F 0.4 °F 30.52 in Calm     70% 0.00 in
05:39 8.0 °F -0.1 °F 30.52 in NW 1.2 mph   69% 0.00 in
05:44 7.9 °F 0.1 °F 30.52 in NW 1.2 mph 1.2 mph 70% 0.00 in
05:49 7.7 °F -0.1 °F 30.52 in Calm     70% 0.00 in
05:54 7.3 °F -0.4 °F 30.53 in Calm     70% 0.00 in
05:59 6.8 °F -1.2 °F 30.53 in Calm     69% 0.00 in
06:04 6.0 °F -1.4 °F 30.53 in Calm   0.1 mph 71% 0.00 in
06:09 5.1 °F -2.0 °F 30.53 in Calm   0.1 mph 72% 0.00 in
06:14 4.6 °F -1.9 °F 30.53 in Calm     74% 0.00 in
06:19 4.4 °F -1.5 °F 30.54 in Calm     76% 0.00 in
06:24 4.2 °F -2.0 °F 30.53 in Calm     75% 0.00 in
06:29 3.7 °F -2.7 °F 30.53 in Calm     74% 0.00 in
06:34 3.1 °F -3.0 °F 30.54 in NW 1.2 mph 1.2 mph 75% 0.00 in
06:39 2.9 °F -2.7 °F 30.54 in Calm     77% 0.00 in
06:44 3.0 °F -2.0 °F 30.53 in NW 1.2 mph   79% 0.00 in
06:49 3.1 °F -2.2 °F 30.53 in NW 1.2 mph   78% 0.00 in
06:54 3.2 °F -1.8 °F 30.54 in Calm     79% 0.00 in
06:59 3.3 °F -2.0 °F 30.54 in Calm     78% 0.00 in
07:04 3.3 °F -2.0 °F 30.54 in Calm     78% 0.00 in
07:09 3.3 °F -1.7 °F 30.54 in Calm     79% 0.00 in
07:14 3.6 °F -1.5 °F 30.53 in NW 1.2 mph   79% 0.00 in
07:19 4.0 °F -1.1 °F 30.54 in Calm     79% 0.00 in
07:24 4.6 °F -0.5 °F 30.54 in Calm     79% 0.00 in
07:29 5.0 °F -0.4 °F 30.55 in Calm     78% 0.00 in
07:34 5.5 °F 0.1 °F 30.54 in NW 1.2 mph 1.2 mph 78% 0.00 in
07:39 6.2 °F 0.5 °F 30.54 in NW 1.2 mph   77% 0.00 in
07:44 7.2 °F 1.5 °F 30.55 in Calm     77% 0.00 in
07:49 8.5 °F 2.2 °F 30.55 in South 2.3 mph   75% 0.00 in
07:54 9.4 °F 2.8 °F 30.55 in Calm     74% 0.00 in
07:59 10.1 °F 2.6 °F 30.55 in Calm     71% 0.00 in
08:04 10.7 °F 2.8 °F 30.56 in Calm     70% 0.00 in
08:09 11.6 °F 3.4 °F 30.56 in Calm   0.2 mph 69% 0.00 in
08:14 12.3 °F 3.7 °F 30.57 in Calm     68% 0.00 in
08:19 12.8 °F 3.6 °F 30.57 in South 1.0 mph   66% 0.00 in
08:24 13.0 °F 3.4 °F 30.57 in South 1.2 mph   65% 0.00 in
08:29 12.9 °F 3.3 °F 30.57 in South 1.2 mph   65% 0.00 in
08:34 12.9 °F 3.7 °F 30.57 in WNW 1.2 mph   66% 0.00 in
08:39 13.0 °F 3.4 °F 30.57 in WNW 1.2 mph   65% 0.00 in
08:44 13.0 °F 3.4 °F 30.57 in SW 3.5 mph 3.5 mph 65% 0.00 in
08:49 13.4 °F 4.1 °F 30.58 in NW 2.3 mph 2.3 mph 66% 0.00 in
08:55 13.7 °F 4.1 °F 30.57 in NW 1.0 mph 1.0 mph 65% 0.00 in
09:00 13.8 °F 4.2 °F 30.57 in WNW 4.6 mph 4.6 mph 65% 0.00 in
09:05 14.2 °F 4.6 °F 30.57 in Calm     65% 0.00 in
Mechanicsburg,PA USA
Compliments of Weather Underground